sensor_id;sensor_type;location;lat;lon;timestamp;pressure;altitude;pressure_sealevel;temperature;humidity
64053;BME280;50299;49.524;8.536;2022-12-29T00:02:23;99927.34;;;6.28;58.54
64053;BME280;50299;49.524;8.536;2022-12-29T00:04:50;99913.09;;;6.48;58.17
64053;BME280;50299;49.524;8.536;2022-12-29T00:07:17;99921.09;;;6.13;58.80
64053;BME280;50299;49.524;8.536;2022-12-29T00:09:43;99923.91;;;6.22;59.76
64053;BME280;50299;49.524;8.536;2022-12-29T00:12:10;99919.16;;;6.14;59.24
64053;BME280;50299;49.524;8.536;2022-12-29T00:14:36;99911.91;;;6.18;60.46
64053;BME280;50299;49.524;8.536;2022-12-29T00:17:21;99919.72;;;6.02;59.84
64053;BME280;50299;49.524;8.536;2022-12-29T00:19:48;99909.06;;;6.01;60.72
64053;BME280;50299;49.524;8.536;2022-12-29T00:22:33;99918.69;;;6.21;61.57
64053;BME280;50299;49.524;8.536;2022-12-29T00:25:20;99921.53;;;5.71;63.20
64053;BME280;50299;49.524;8.536;2022-12-29T00:28:08;99923.81;;;5.91;63.48
64053;BME280;50299;49.524;8.536;2022-12-29T00:30:53;99911.00;;;6.00;64.21
64053;BME280;50299;49.524;8.536;2022-12-29T00:33:38;99915.22;;;6.06;64.01
64053;BME280;50299;49.524;8.536;2022-12-29T00:36:37;99915.41;;;6.10;64.17
64053;BME280;50299;49.524;8.536;2022-12-29T00:39:13;99925.31;;;6.33;64.12
64053;BME280;50299;49.524;8.536;2022-12-29T00:42:05;99918.06;;;6.37;64.06
64053;BME280;50299;49.524;8.536;2022-12-29T00:45:05;99913.50;;;6.64;63.21
64053;BME280;50299;49.524;8.536;2022-12-29T00:47:32;99902.78;;;6.23;63.96
64053;BME280;50299;49.524;8.536;2022-12-29T00:49:59;99917.22;;;6.14;64.18
64053;BME280;50299;49.524;8.536;2022-12-29T00:52:25;99914.03;;;6.21;64.78
64053;BME280;50299;49.524;8.536;2022-12-29T00:54:52;99910.06;;;6.27;64.59
64053;BME280;50299;49.524;8.536;2022-12-29T00:57:18;99920.66;;;6.43;64.12
64053;BME280;50299;49.524;8.536;2022-12-29T00:59:44;99908.19;;;6.36;64.98
64053;BME280;50299;49.524;8.536;2022-12-29T01:02:11;99919.34;;;6.40;64.11
64053;BME280;50299;49.524;8.536;2022-12-29T01:04:38;99926.59;;;6.36;63.72
64053;BME280;50299;49.524;8.536;2022-12-29T01:07:04;99919.63;;;6.30;63.86
64053;BME280;50299;49.524;8.536;2022-12-29T01:09:31;99921.38;;;6.57;62.01
64053;BME280;50299;49.524;8.536;2022-12-29T01:12:16;99916.97;;;6.47;61.25
64053;BME280;50299;49.524;8.536;2022-12-29T01:14:43;99914.19;;;6.38;62.14
64053;BME280;50299;49.524;8.536;2022-12-29T01:17:09;99905.31;;;6.42;62.17
64053;BME280;50299;49.524;8.536;2022-12-29T01:19:36;99910.22;;;6.08;63.75
64053;BME280;50299;49.524;8.536;2022-12-29T01:22:02;99899.38;;;6.03;64.24
64053;BME280;50299;49.524;8.536;2022-12-29T01:24:29;99908.00;;;6.10;63.63
64053;BME280;50299;49.524;8.536;2022-12-29T01:26:55;99896.94;;;6.02;63.68
64053;BME280;50299;49.524;8.536;2022-12-29T01:29:22;99907.94;;;6.02;63.77
64053;BME280;50299;49.524;8.536;2022-12-29T01:31:48;99904.72;;;6.08;63.61
64053;BME280;50299;49.524;8.536;2022-12-29T01:34:16;99907.66;;;6.12;64.34
64053;BME280;50299;49.524;8.536;2022-12-29T01:36:43;99900.69;;;6.28;63.83
64053;BME280;50299;49.524;8.536;2022-12-29T01:39:09;99906.31;;;6.23;63.90
64053;BME280;50299;49.524;8.536;2022-12-29T01:41:36;99898.13;;;6.32;65.16
64053;BME280;50299;49.524;8.536;2022-12-29T01:44:02;99902.31;;;6.07;66.53
64053;BME280;50299;49.524;8.536;2022-12-29T01:46:32;99909.28;;;5.90;67.12
64053;BME280;50299;49.524;8.536;2022-12-29T01:49:16;99904.41;;;5.87;68.13
64053;BME280;50299;49.524;8.536;2022-12-29T01:51:48;99907.16;;;5.87;70.81
64053;BME280;50299;49.524;8.536;2022-12-29T01:54:22;99899.06;;;5.82;70.36
64053;BME280;50299;49.524;8.536;2022-12-29T01:56:54;99901.88;;;5.91;71.71
64053;BME280;50299;49.524;8.536;2022-12-29T01:59:24;99910.28;;;5.95;70.09
64053;BME280;50299;49.524;8.536;2022-12-29T02:01:53;99914.47;;;5.92;70.65
64053;BME280;50299;49.524;8.536;2022-12-29T02:04:22;99907.00;;;6.29;70.05
64053;BME280;50299;49.524;8.536;2022-12-29T02:06:51;99918.53;;;6.39;69.37
64053;BME280;50299;49.524;8.536;2022-12-29T02:09:19;99914.91;;;6.53;69.33
64053;BME280;50299;49.524;8.536;2022-12-29T02:11:46;99907.00;;;6.06;70.24
64053;BME280;50299;49.524;8.536;2022-12-29T02:14:13;99907.19;;;6.10;71.20
64053;BME280;50299;49.524;8.536;2022-12-29T02:24:58;99910.31;;;6.17;70.31
64053;BME280;50299;49.524;8.536;2022-12-29T02:27:39;99905.63;;;6.18;70.76
64053;BME280;50299;49.524;8.536;2022-12-29T02:35:54;99894.91;;;6.30;71.41
64053;BME280;50299;49.524;8.536;2022-12-29T02:41:22;99892.97;;;6.61;69.21
64053;BME280;50299;49.524;8.536;2022-12-29T02:44:01;99902.38;;;6.38;69.04
64053;BME280;50299;49.524;8.536;2022-12-29T02:46:47;99883.66;;;6.18;70.48
64053;BME280;50299;49.524;8.536;2022-12-29T02:49:30;99879.63;;;6.37;69.33
64053;BME280;50299;49.524;8.536;2022-12-29T02:52:34;99878.38;;;6.52;68.89
64053;BME280;50299;49.524;8.536;2022-12-29T02:55:01;99885.94;;;6.78;67.66
64053;BME280;50299;49.524;8.536;2022-12-29T02:57:33;99887.94;;;6.95;69.02
64053;BME280;50299;49.524;8.536;2022-12-29T03:00:36;99867.19;;;6.71;68.53
64053;BME280;50299;49.524;8.536;2022-12-29T03:03:32;99862.00;;;6.78;67.80
64053;BME280;50299;49.524;8.536;2022-12-29T03:07:10;99873.69;;;6.53;68.15
64053;BME280;50299;49.524;8.536;2022-12-29T03:09:37;99865.19;;;6.63;69.26
64053;BME280;50299;49.524;8.536;2022-12-29T03:12:25;99867.22;;;6.49;68.68
64053;BME280;50299;49.524;8.536;2022-12-29T03:15:28;99863.16;;;6.77;68.36
64053;BME280;50299;49.524;8.536;2022-12-29T03:21:10;99838.09;;;6.70;68.74
64053;BME280;50299;49.524;8.536;2022-12-29T03:23:39;99834.44;;;6.52;69.03
64053;BME280;50299;49.524;8.536;2022-12-29T03:26:09;99832.66;;;6.48;68.62
64053;BME280;50299;49.524;8.536;2022-12-29T03:28:40;99822.09;;;6.72;67.79
64053;BME280;50299;49.524;8.536;2022-12-29T03:31:10;99817.72;;;6.71;67.86
64053;BME280;50299;49.524;8.536;2022-12-29T03:33:39;99799.66;;;6.70;67.60
64053;BME280;50299;49.524;8.536;2022-12-29T03:36:11;99827.38;;;6.60;68.17
64053;BME280;50299;49.524;8.536;2022-12-29T03:38:55;99827.22;;;6.65;67.95
64053;BME280;50299;49.524;8.536;2022-12-29T03:41:26;99811.28;;;6.76;67.02
64053;BME280;50299;49.524;8.536;2022-12-29T03:43:54;99821.09;;;6.68;67.66
64053;BME280;50299;49.524;8.536;2022-12-29T03:46:20;99816.41;;;6.60;67.33
64053;BME280;50299;49.524;8.536;2022-12-29T03:48:47;99793.53;;;6.90;66.65
64053;BME280;50299;49.524;8.536;2022-12-29T03:51:13;99799.47;;;6.75;66.86
64053;BME280;50299;49.524;8.536;2022-12-29T03:53:40;99793.19;;;6.83;66.06
64053;BME280;50299;49.524;8.536;2022-12-29T03:56:06;99791.56;;;6.82;65.28
64053;BME280;50299;49.524;8.536;2022-12-29T03:58:32;99791.91;;;6.81;65.33
64053;BME280;50299;49.524;8.536;2022-12-29T04:00:59;99790.81;;;7.08;64.17
64053;BME280;50299;49.524;8.536;2022-12-29T04:03:26;99787.28;;;7.16;64.75
64053;BME280;50299;49.524;8.536;2022-12-29T04:05:52;99792.59;;;7.21;63.98
64053;BME280;50299;49.524;8.536;2022-12-29T04:08:18;99791.63;;;7.34;63.05
64053;BME280;50299;49.524;8.536;2022-12-29T04:10:45;99786.31;;;7.29;62.94
64053;BME280;50299;49.524;8.536;2022-12-29T04:13:11;99778.69;;;7.26;63.59
64053;BME280;50299;49.524;8.536;2022-12-29T04:15:37;99791.13;;;7.15;64.17
64053;BME280;50299;49.524;8.536;2022-12-29T04:18:04;99788.25;;;7.29;63.64
64053;BME280;50299;49.524;8.536;2022-12-29T04:20:31;99795.81;;;7.23;63.41
64053;BME280;50299;49.524;8.536;2022-12-29T04:23:16;99788.88;;;7.08;63.88
64053;BME280;50299;49.524;8.536;2022-12-29T04:25:45;99793.25;;;7.18;63.18
64053;BME280;50299;49.524;8.536;2022-12-29T04:28:14;99791.44;;;6.96;63.62
64053;BME280;50299;49.524;8.536;2022-12-29T04:30:42;99774.25;;;6.73;64.26
64053;BME280;50299;49.524;8.536;2022-12-29T04:33:09;99789.13;;;6.72;64.99
64053;BME280;50299;49.524;8.536;2022-12-29T04:35:36;99784.78;;;6.80;64.39
64053;BME280;50299;49.524;8.536;2022-12-29T04:38:03;99776.19;;;6.73;64.40
64053;BME280;50299;49.524;8.536;2022-12-29T04:40:29;99779.16;;;6.94;63.23
64053;BME280;50299;49.524;8.536;2022-12-29T04:42:56;99783.03;;;6.84;64.25
64053;BME280;50299;49.524;8.536;2022-12-29T04:45:22;99788.03;;;6.90;63.43
64053;BME280;50299;49.524;8.536;2022-12-29T04:47:48;99771.53;;;6.90;63.70
64053;BME280;50299;49.524;8.536;2022-12-29T04:50:18;99777.53;;;6.93;63.61
64053;BME280;50299;49.524;8.536;2022-12-29T04:52:44;99785.00;;;7.01;63.51
64053;BME280;50299;49.524;8.536;2022-12-29T04:55:11;99782.75;;;7.37;61.82
64053;BME280;50299;49.524;8.536;2022-12-29T04:57:37;99784.03;;;7.23;63.40
64053;BME280;50299;49.524;8.536;2022-12-29T05:00:04;99785.34;;;7.25;62.16
64053;BME280;50299;49.524;8.536;2022-12-29T05:02:31;99790.66;;;7.48;63.00
64053;BME280;50299;49.524;8.536;2022-12-29T05:04:58;99788.41;;;7.41;61.51
64053;BME280;50299;49.524;8.536;2022-12-29T05:07:24;99781.28;;;7.40;62.11
64053;BME280;50299;49.524;8.536;2022-12-29T05:09:51;99782.13;;;7.32;61.52
64053;BME280;50299;49.524;8.536;2022-12-29T05:12:17;99785.06;;;7.53;62.69
64053;BME280;50299;49.524;8.536;2022-12-29T05:14:44;99793.56;;;7.17;61.75
64053;BME280;50299;49.524;8.536;2022-12-29T05:17:10;99791.13;;;7.06;62.33
64053;BME280;50299;49.524;8.536;2022-12-29T05:19:36;99788.38;;;7.15;62.29
64053;BME280;50299;49.524;8.536;2022-12-29T05:22:04;99784.63;;;6.85;63.52
64053;BME280;50299;49.524;8.536;2022-12-29T05:24:30;99786.47;;;7.15;64.07
64053;BME280;50299;49.524;8.536;2022-12-29T05:26:57;99801.66;;;7.13;61.37
64053;BME280;50299;49.524;8.536;2022-12-29T05:29:23;99797.75;;;7.05;63.92
64053;BME280;50299;49.524;8.536;2022-12-29T05:31:49;99797.59;;;7.10;62.59
64053;BME280;50299;49.524;8.536;2022-12-29T05:34:16;99800.69;;;7.26;62.17
64053;BME280;50299;49.524;8.536;2022-12-29T05:36:43;99798.56;;;7.14;61.23
64053;BME280;50299;49.524;8.536;2022-12-29T05:39:11;99793.13;;;7.32;61.55
64053;BME280;50299;49.524;8.536;2022-12-29T05:41:38;99795.03;;;7.23;61.75
64053;BME280;50299;49.524;8.536;2022-12-29T05:44:04;99789.06;;;7.12;61.67
64053;BME280;50299;49.524;8.536;2022-12-29T05:46:30;99795.00;;;7.05;61.82
64053;BME280;50299;49.524;8.536;2022-12-29T05:48:57;99777.25;;;7.37;62.30
64053;BME280;50299;49.524;8.536;2022-12-29T05:51:23;99789.22;;;7.15;62.33
64053;BME280;50299;49.524;8.536;2022-12-29T05:53:50;99781.41;;;6.83;62.76
64053;BME280;50299;49.524;8.536;2022-12-29T05:56:16;99781.69;;;6.64;63.87
64053;BME280;50299;49.524;8.536;2022-12-29T05:58:43;99795.09;;;6.74;63.81
64053;BME280;50299;49.524;8.536;2022-12-29T06:01:09;99789.06;;;6.46;64.72
64053;BME280;50299;49.524;8.536;2022-12-29T06:03:35;99779.09;;;6.68;64.19
64053;BME280;50299;49.524;8.536;2022-12-29T06:06:02;99772.19;;;6.87;64.02
64053;BME280;50299;49.524;8.536;2022-12-29T06:08:28;99782.31;;;6.61;64.96
64053;BME280;50299;49.524;8.536;2022-12-29T06:10:55;99774.75;;;6.75;63.80
64053;BME280;50299;49.524;8.536;2022-12-29T06:13:21;99780.63;;;6.91;64.15
64053;BME280;50299;49.524;8.536;2022-12-29T06:15:48;99782.88;;;6.98;64.59
64053;BME280;50299;49.524;8.536;2022-12-29T06:18:15;99768.84;;;7.17;63.04
64053;BME280;50299;49.524;8.536;2022-12-29T06:20:45;99761.91;;;7.28;63.54
64053;BME280;50299;49.524;8.536;2022-12-29T06:23:12;99766.59;;;7.36;62.33
64053;BME280;50299;49.524;8.536;2022-12-29T06:25:39;99771.41;;;7.39;63.78
64053;BME280;50299;49.524;8.536;2022-12-29T06:28:05;99774.34;;;7.43;61.69
64053;BME280;50299;49.524;8.536;2022-12-29T06:30:32;99778.59;;;7.49;62.22
64053;BME280;50299;49.524;8.536;2022-12-29T06:32:59;99778.53;;;7.40;61.80
64053;BME280;50299;49.524;8.536;2022-12-29T06:35:25;99777.44;;;7.50;61.23
64053;BME280;50299;49.524;8.536;2022-12-29T06:37:52;99772.25;;;7.57;61.31
64053;BME280;50299;49.524;8.536;2022-12-29T06:40:20;99769.66;;;7.69;61.18
64053;BME280;50299;49.524;8.536;2022-12-29T06:42:47;99766.59;;;7.62;61.58
64053;BME280;50299;49.524;8.536;2022-12-29T06:45:15;99763.19;;;7.65;60.01
64053;BME280;50299;49.524;8.536;2022-12-29T06:47:42;99764.13;;;7.78;59.62
64053;BME280;50299;49.524;8.536;2022-12-29T06:50:09;99763.63;;;7.76;59.89
64053;BME280;50299;49.524;8.536;2022-12-29T06:52:35;99768.03;;;7.68;60.87
64053;BME280;50299;49.524;8.536;2022-12-29T06:55:02;99768.97;;;7.81;60.03
64053;BME280;50299;49.524;8.536;2022-12-29T06:57:28;99771.03;;;7.93;59.26
64053;BME280;50299;49.524;8.536;2022-12-29T06:59:55;99760.25;;;7.79;60.17
64053;BME280;50299;49.524;8.536;2022-12-29T07:02:24;99761.03;;;7.88;59.75
64053;BME280;50299;49.524;8.536;2022-12-29T07:04:52;99761.81;;;7.97;59.79
64053;BME280;50299;49.524;8.536;2022-12-29T07:07:22;99758.78;;;7.90;58.44
64053;BME280;50299;49.524;8.536;2022-12-29T07:09:49;99760.84;;;8.02;57.84
64053;BME280;50299;49.524;8.536;2022-12-29T07:12:15;99763.59;;;7.93;58.58
64053;BME280;50299;49.524;8.536;2022-12-29T07:14:42;99766.94;;;8.16;58.36
64053;BME280;50299;49.524;8.536;2022-12-29T07:17:09;99763.97;;;7.83;58.74
64053;BME280;50299;49.524;8.536;2022-12-29T07:19:35;99762.53;;;7.59;57.84
64053;BME280;50299;49.524;8.536;2022-12-29T07:22:02;99759.78;;;7.59;58.51
64053;BME280;50299;49.524;8.536;2022-12-29T07:24:28;99760.09;;;7.75;58.21
64053;BME280;50299;49.524;8.536;2022-12-29T07:26:55;99778.41;;;7.28;58.78
64053;BME280;50299;49.524;8.536;2022-12-29T07:29:22;99774.50;;;7.46;59.33
64053;BME280;50299;49.524;8.536;2022-12-29T07:31:48;99776.59;;;7.40;58.03
64053;BME280;50299;49.524;8.536;2022-12-29T07:34:15;99781.94;;;7.63;57.87
64053;BME280;50299;49.524;8.536;2022-12-29T07:36:48;99765.59;;;7.23;58.68
64053;BME280;50299;49.524;8.536;2022-12-29T07:39:14;99778.06;;;7.03;59.60
64053;BME280;50299;49.524;8.536;2022-12-29T07:41:41;99774.00;;;7.01;59.42
64053;BME280;50299;49.524;8.536;2022-12-29T07:44:08;99785.50;;;7.20;58.22
64053;BME280;50299;49.524;8.536;2022-12-29T07:46:35;99779.50;;;7.18;58.37
64053;BME280;50299;49.524;8.536;2022-12-29T07:49:21;99784.84;;;7.14;58.68
64053;BME280;50299;49.524;8.536;2022-12-29T07:51:47;99783.22;;;6.96;58.67
64053;BME280;50299;49.524;8.536;2022-12-29T07:54:14;99798.72;;;7.01;58.88
64053;BME280;50299;49.524;8.536;2022-12-29T07:56:40;99793.22;;;7.01;58.69
64053;BME280;50299;49.524;8.536;2022-12-29T07:59:07;99791.94;;;7.07;59.45
64053;BME280;50299;49.524;8.536;2022-12-29T08:01:33;99795.47;;;6.99;59.92
64053;BME280;50299;49.524;8.536;2022-12-29T08:04:00;99796.34;;;7.25;58.26
64053;BME280;50299;49.524;8.536;2022-12-29T08:06:26;99796.81;;;7.27;58.83
64053;BME280;50299;49.524;8.536;2022-12-29T08:08:52;99797.94;;;7.26;58.06
64053;BME280;50299;49.524;8.536;2022-12-29T08:11:21;99797.47;;;7.24;59.33
64053;BME280;50299;49.524;8.536;2022-12-29T08:13:48;99807.16;;;7.13;58.50
64053;BME280;50299;49.524;8.536;2022-12-29T08:16:14;99811.38;;;7.28;58.41
64053;BME280;50299;49.524;8.536;2022-12-29T08:18:41;99815.41;;;7.30;58.45
64053;BME280;50299;49.524;8.536;2022-12-29T08:21:07;99823.50;;;7.27;57.96
64053;BME280;50299;49.524;8.536;2022-12-29T08:23:33;99822.69;;;7.26;58.50
64053;BME280;50299;49.524;8.536;2022-12-29T08:26:01;99821.06;;;7.43;58.50
64053;BME280;50299;49.524;8.536;2022-12-29T08:28:28;99815.94;;;7.50;58.32
64053;BME280;50299;49.524;8.536;2022-12-29T08:31:00;99825.94;;;7.46;57.04
64053;BME280;50299;49.524;8.536;2022-12-29T08:33:27;99837.41;;;7.30;58.71
64053;BME280;50299;49.524;8.536;2022-12-29T08:36:01;99832.72;;;7.39;59.88
64053;BME280;50299;49.524;8.536;2022-12-29T08:38:29;99844.19;;;7.15;60.73
64053;BME280;50299;49.524;8.536;2022-12-29T08:40:57;99830.94;;;7.26;60.45
64053;BME280;50299;49.524;8.536;2022-12-29T08:43:24;99831.44;;;7.28;59.87
64053;BME280;50299;49.524;8.536;2022-12-29T08:45:51;99832.41;;;7.24;60.21
64053;BME280;50299;49.524;8.536;2022-12-29T08:48:18;99835.16;;;7.32;59.95
64053;BME280;50299;49.524;8.536;2022-12-29T08:50:46;99835.78;;;7.29;59.60
64053;BME280;50299;49.524;8.536;2022-12-29T08:53:13;99836.00;;;7.50;59.49
64053;BME280;50299;49.524;8.536;2022-12-29T08:55:39;99834.38;;;7.49;58.13
64053;BME280;50299;49.524;8.536;2022-12-29T08:58:06;99841.81;;;7.66;59.00
64053;BME280;50299;49.524;8.536;2022-12-29T09:00:32;99837.75;;;7.72;58.11
64053;BME280;50299;49.524;8.536;2022-12-29T09:02:59;99841.84;;;7.49;58.66
64053;BME280;50299;49.524;8.536;2022-12-29T09:05:25;99846.53;;;7.66;58.36
64053;BME280;50299;49.524;8.536;2022-12-29T09:07:52;99845.06;;;7.68;57.50
64053;BME280;50299;49.524;8.536;2022-12-29T09:10:18;99844.41;;;7.80;56.93
64053;BME280;50299;49.524;8.536;2022-12-29T09:12:44;99841.16;;;7.86;57.19
64053;BME280;50299;49.524;8.536;2022-12-29T09:15:11;99843.28;;;7.72;57.41
64053;BME280;50299;49.524;8.536;2022-12-29T09:17:38;99853.63;;;7.58;57.68
64053;BME280;50299;49.524;8.536;2022-12-29T09:20:09;99841.66;;;7.71;58.15
64053;BME280;50299;49.524;8.536;2022-12-29T09:22:36;99853.97;;;7.82;58.00
64053;BME280;50299;49.524;8.536;2022-12-29T09:25:03;99865.63;;;7.62;58.73
64053;BME280;50299;49.524;8.536;2022-12-29T09:27:30;99862.31;;;7.43;58.48
64053;BME280;50299;49.524;8.536;2022-12-29T09:29:56;99855.75;;;7.70;58.75
64053;BME280;50299;49.524;8.536;2022-12-29T09:32:23;99855.75;;;7.78;58.33
64053;BME280;50299;49.524;8.536;2022-12-29T09:34:55;99868.03;;;7.89;58.41
64053;BME280;50299;49.524;8.536;2022-12-29T09:37:21;99867.06;;;7.94;58.21
64053;BME280;50299;49.524;8.536;2022-12-29T09:39:47;99877.25;;;7.68;58.20
64053;BME280;50299;49.524;8.536;2022-12-29T09:42:27;99875.44;;;7.46;58.76
64053;BME280;50299;49.524;8.536;2022-12-29T09:45:04;99866.66;;;7.26;60.65
64053;BME280;50299;49.524;8.536;2022-12-29T09:47:35;99891.06;;;7.19;61.40
64053;BME280;50299;49.524;8.536;2022-12-29T09:50:06;99890.25;;;7.19;60.95
64053;BME280;50299;49.524;8.536;2022-12-29T09:52:43;99877.22;;;7.33;61.44
64053;BME280;50299;49.524;8.536;2022-12-29T09:55:17;99892.53;;;7.17;61.49
64053;BME280;50299;49.524;8.536;2022-12-29T09:58:04;99901.16;;;7.32;61.04
64053;BME280;50299;49.524;8.536;2022-12-29T10:03:27;99894.72;;;7.72;60.03
64053;BME280;50299;49.524;8.536;2022-12-29T10:06:19;99901.22;;;7.84;59.99
64053;BME280;50299;49.524;8.536;2022-12-29T10:09:09;99894.56;;;7.59;60.79
64053;BME280;50299;49.524;8.536;2022-12-29T10:15:17;99906.31;;;7.43;61.24
64053;BME280;50299;49.524;8.536;2022-12-29T10:18:19;99898.41;;;7.32;62.29
64053;BME280;50299;49.524;8.536;2022-12-29T10:20:56;99907.72;;;7.14;63.65
64053;BME280;50299;49.524;8.536;2022-12-29T10:23:31;99905.13;;;7.09;64.25
64053;BME280;50299;49.524;8.536;2022-12-29T10:26:01;99893.22;;;7.48;62.92
64053;BME280;50299;49.524;8.536;2022-12-29T10:28:38;99898.94;;;7.52;63.22
64053;BME280;50299;49.524;8.536;2022-12-29T10:31:09;99899.69;;;7.44;62.35
64053;BME280;50299;49.524;8.536;2022-12-29T10:33:42;99900.06;;;7.68;62.01
64053;BME280;50299;49.524;8.536;2022-12-29T10:36:16;99903.97;;;7.76;61.60
64053;BME280;50299;49.524;8.536;2022-12-29T10:41:40;99904.78;;;7.76;61.47
64053;BME280;50299;49.524;8.536;2022-12-29T10:44:12;99894.72;;;7.54;61.26
64053;BME280;50299;49.524;8.536;2022-12-29T10:46:40;99885.94;;;7.44;61.72
64053;BME280;50299;49.524;8.536;2022-12-29T10:49:14;99890.38;;;7.71;61.08
64053;BME280;50299;49.524;8.536;2022-12-29T10:51:48;99899.25;;;7.50;61.14
64053;BME280;50299;49.524;8.536;2022-12-29T10:54:21;99890.81;;;7.47;60.63
64053;BME280;50299;49.524;8.536;2022-12-29T10:56:56;99891.50;;;7.61;60.50
64053;BME280;50299;49.524;8.536;2022-12-29T10:59:27;99890.22;;;7.67;60.45
64053;BME280;50299;49.524;8.536;2022-12-29T11:02:05;99877.56;;;8.09;59.20
64053;BME280;50299;49.524;8.536;2022-12-29T11:04:50;99891.44;;;7.44;60.63
64053;BME280;50299;49.524;8.536;2022-12-29T11:07:21;99895.25;;;7.74;62.21
64053;BME280;50299;49.524;8.536;2022-12-29T11:09:52;99900.00;;;7.33;64.14
64053;BME280;50299;49.524;8.536;2022-12-29T11:12:25;99906.38;;;7.03;64.67
64053;BME280;50299;49.524;8.536;2022-12-29T11:17:56;99902.03;;;7.10;64.97
64053;BME280;50299;49.524;8.536;2022-12-29T11:20:34;99914.22;;;7.27;63.91
64053;BME280;50299;49.524;8.536;2022-12-29T11:23:03;99917.06;;;7.61;64.37
64053;BME280;50299;49.524;8.536;2022-12-29T11:25:31;99917.72;;;7.76;61.69
64053;BME280;50299;49.524;8.536;2022-12-29T11:28:15;99921.44;;;8.23;60.39
64053;BME280;50299;49.524;8.536;2022-12-29T11:30:42;99914.81;;;8.07;59.99
64053;BME280;50299;49.524;8.536;2022-12-29T11:33:09;99918.69;;;8.23;60.48
64053;BME280;50299;49.524;8.536;2022-12-29T11:35:41;99910.03;;;8.59;58.22
64053;BME280;50299;49.524;8.536;2022-12-29T11:38:27;99918.78;;;9.00;57.36
64053;BME280;50299;49.524;8.536;2022-12-29T11:40:58;99920.03;;;9.11;57.81
64053;BME280;50299;49.524;8.536;2022-12-29T11:43:33;99922.41;;;8.92;56.46
64053;BME280;50299;49.524;8.536;2022-12-29T11:46:01;99923.41;;;9.25;55.69
64053;BME280;50299;49.524;8.536;2022-12-29T11:48:40;99909.56;;;8.40;55.96
64053;BME280;50299;49.524;8.536;2022-12-29T11:51:08;99912.53;;;7.92;57.78
64053;BME280;50299;49.524;8.536;2022-12-29T11:53:44;99910.28;;;7.94;57.54
64053;BME280;50299;49.524;8.536;2022-12-29T11:56:21;99907.34;;;7.64;58.00
64053;BME280;50299;49.524;8.536;2022-12-29T11:58:50;99916.56;;;7.68;58.15
64053;BME280;50299;49.524;8.536;2022-12-29T12:01:20;99904.09;;;7.45;59.10
64053;BME280;50299;49.524;8.536;2022-12-29T12:04:05;99910.50;;;7.31;59.47
64053;BME280;50299;49.524;8.536;2022-12-29T12:06:38;99904.91;;;7.97;58.82
64053;BME280;50299;49.524;8.536;2022-12-29T12:09:25;99914.47;;;8.17;57.93
64053;BME280;50299;49.524;8.536;2022-12-29T12:11:54;99911.16;;;9.05;58.03
64053;BME280;50299;49.524;8.536;2022-12-29T12:16:56;99925.81;;;8.24;56.55
64053;BME280;50299;49.524;8.536;2022-12-29T12:19:33;99912.06;;;7.89;55.41
64053;BME280;50299;49.524;8.536;2022-12-29T12:22:11;99915.78;;;7.76;57.11
64053;BME280;50299;49.524;8.536;2022-12-29T12:24:42;99916.09;;;7.57;57.08
64053;BME280;50299;49.524;8.536;2022-12-29T12:27:19;99919.91;;;7.48;55.59
64053;BME280;50299;49.524;8.536;2022-12-29T12:29:52;99941.03;;;7.70;55.47
64053;BME280;50299;49.524;8.536;2022-12-29T12:32:44;99926.72;;;7.42;56.06
64053;BME280;50299;49.524;8.536;2022-12-29T12:35:44;99929.47;;;7.42;55.34
64053;BME280;50299;49.524;8.536;2022-12-29T12:38:42;99921.50;;;7.40;56.88
64053;BME280;50299;49.524;8.536;2022-12-29T12:41:17;99915.72;;;7.42;57.32
64053;BME280;50299;49.524;8.536;2022-12-29T12:44:00;99906.53;;;7.55;58.74
64053;BME280;50299;49.524;8.536;2022-12-29T12:57:53;99897.41;;;7.20;61.12
64053;BME280;50299;49.524;8.536;2022-12-29T13:00:22;99904.53;;;7.29;60.62
64053;BME280;50299;49.524;8.536;2022-12-29T13:06:02;99899.25;;;7.50;60.72
64053;BME280;50299;49.524;8.536;2022-12-29T13:09:16;99894.53;;;8.20;58.93
64053;BME280;50299;49.524;8.536;2022-12-29T13:12:02;99900.41;;;7.93;58.76
64053;BME280;50299;49.524;8.536;2022-12-29T13:14:50;99891.84;;;7.85;58.80
64053;BME280;50299;49.524;8.536;2022-12-29T13:20:17;99888.59;;;7.66;59.49
64053;BME280;50299;49.524;8.536;2022-12-29T13:23:00;99891.19;;;7.54;59.82
64053;BME280;50299;49.524;8.536;2022-12-29T13:25:41;99894.47;;;7.16;59.24
64053;BME280;50299;49.524;8.536;2022-12-29T13:28:29;99909.69;;;7.31;58.53
64053;BME280;50299;49.524;8.536;2022-12-29T13:31:04;99904.69;;;7.24;58.85
64053;BME280;50299;49.524;8.536;2022-12-29T13:33:49;99897.00;;;7.61;58.66
64053;BME280;50299;49.524;8.536;2022-12-29T13:36:28;99890.53;;;7.74;57.48
64053;BME280;50299;49.524;8.536;2022-12-29T13:41:39;99893.31;;;7.08;57.64
64053;BME280;50299;49.524;8.536;2022-12-29T13:44:11;99891.09;;;6.71;60.54
64053;BME280;50299;49.524;8.536;2022-12-29T13:46:45;99884.91;;;7.05;59.26
64053;BME280;50299;49.524;8.536;2022-12-29T13:49:17;99884.66;;;6.84;60.14
64053;BME280;50299;49.524;8.536;2022-12-29T13:54:55;99900.53;;;6.87;60.42
64053;BME280;50299;49.524;8.536;2022-12-29T13:57:31;99901.94;;;6.00;66.75
64053;BME280;50299;49.524;8.536;2022-12-29T14:00:14;99910.69;;;6.24;63.79
64053;BME280;50299;49.524;8.536;2022-12-29T14:07:46;99914.09;;;6.07;65.14
64053;BME280;50299;49.524;8.536;2022-12-29T14:13:27;99913.66;;;6.14;64.31
64053;BME280;50299;49.524;8.536;2022-12-29T14:15:57;99919.09;;;6.05;65.56
64053;BME280;50299;49.524;8.536;2022-12-29T14:18:29;99925.72;;;6.04;66.04
64053;BME280;50299;49.524;8.536;2022-12-29T14:21:28;99929.69;;;6.21;64.16
64053;BME280;50299;49.524;8.536;2022-12-29T14:24:28;99940.28;;;5.91;69.70
64053;BME280;50299;49.524;8.536;2022-12-29T14:34:55;99937.59;;;5.77;67.36
64053;BME280;50299;49.524;8.536;2022-12-29T14:37:35;99950.56;;;5.85;69.26
64053;BME280;50299;49.524;8.536;2022-12-29T14:42:40;99938.13;;;5.65;79.39
64053;BME280;50299;49.524;8.536;2022-12-29T14:47:53;99924.13;;;5.89;68.28
64053;BME280;50299;49.524;8.536;2022-12-29T14:52:59;99949.72;;;6.21;66.26
64053;BME280;50299;49.524;8.536;2022-12-29T14:55:55;99955.19;;;5.99;66.16
64053;BME280;50299;49.524;8.536;2022-12-29T14:58:32;99944.53;;;6.20;66.42